sensor_id;sensor_type;location;lat;lon;timestamp;P1;durP1;ratioP1;P2;durP2;ratioP2
8831;SDS011;4452;50.756;4.472;2023-06-19T00:02:20;6.00;;;3.83;;
8831;SDS011;4452;50.756;4.472;2023-06-19T00:04:46;5.45;;;3.67;;
8831;SDS011;4452;50.756;4.472;2023-06-19T00:07:12;5.90;;;4.22;;
8831;SDS011;4452;50.756;4.472;2023-06-19T00:09:38;4.25;;;3.85;;
8831;SDS011;4452;50.756;4.472;2023-06-19T00:12:03;8.38;;;4.53;;
8831;SDS011;4452;50.756;4.472;2023-06-19T00:14:30;6.20;;;3.85;;
8831;SDS011;4452;50.756;4.472;2023-06-19T00:16:55;6.65;;;4.03;;
8831;SDS011;4452;50.756;4.472;2023-06-19T00:19:21;6.88;;;4.50;;
8831;SDS011;4452;50.756;4.472;2023-06-19T00:21:47;6.63;;;4.80;;
8831;SDS011;4452;50.756;4.472;2023-06-19T00:24:13;9.68;;;4.53;;
8831;SDS011;4452;50.756;4.472;2023-06-19T00:26:39;5.13;;;4.18;;
8831;SDS011;4452;50.756;4.472;2023-06-19T00:29:05;8.07;;;4.70;;
8831;SDS011;4452;50.756;4.472;2023-06-19T00:31:32;4.93;;;3.80;;
8831;SDS011;4452;50.756;4.472;2023-06-19T00:33:57;7.00;;;4.22;;
8831;SDS011;4452;50.756;4.472;2023-06-19T00:36:23;4.97;;;4.53;;
8831;SDS011;4452;50.756;4.472;2023-06-19T00:38:51;6.60;;;4.50;;
8831;SDS011;4452;50.756;4.472;2023-06-19T00:41:17;5.20;;;4.70;;
8831;SDS011;4452;50.756;4.472;2023-06-19T00:43:43;6.63;;;4.25;;
8831;SDS011;4452;50.756;4.472;2023-06-19T00:46:09;7.65;;;4.45;;
8831;SDS011;4452;50.756;4.472;2023-06-19T00:48:36;4.10;;;3.58;;
8831;SDS011;4452;50.756;4.472;2023-06-19T00:51:02;4.97;;;4.40;;
8831;SDS011;4452;50.756;4.472;2023-06-19T00:53:28;4.10;;;3.80;;
8831;SDS011;4452;50.756;4.472;2023-06-19T00:55:57;4.47;;;4.07;;
8831;SDS011;4452;50.756;4.472;2023-06-19T00:58:24;4.30;;;3.90;;
8831;SDS011;4452;50.756;4.472;2023-06-19T01:00:50;6.97;;;4.70;;
8831;SDS011;4452;50.756;4.472;2023-06-19T01:03:16;8.73;;;4.60;;
8831;SDS011;4452;50.756;4.472;2023-06-19T01:05:42;8.00;;;4.35;;
8831;SDS011;4452;50.756;4.472;2023-06-19T01:11:08;5.28;;;4.28;;
8831;SDS011;4452;50.756;4.472;2023-06-19T01:16:09;6.65;;;4.38;;
8831;SDS011;4452;50.756;4.472;2023-06-19T01:18:37;6.60;;;3.75;;
8831;SDS011;4452;50.756;4.472;2023-06-19T01:21:13;9.77;;;4.68;;
8831;SDS011;4452;50.756;4.472;2023-06-19T01:23:40;7.38;;;3.85;;
8831;SDS011;4452;50.756;4.472;2023-06-19T01:26:07;4.60;;;4.03;;
8831;SDS011;4452;50.756;4.472;2023-06-19T01:28:33;6.13;;;4.80;;
8831;SDS011;4452;50.756;4.472;2023-06-19T01:31:02;4.78;;;3.95;;
8831;SDS011;4452;50.756;4.472;2023-06-19T01:33:32;5.65;;;4.20;;
8831;SDS011;4452;50.756;4.472;2023-06-19T01:36:01;10.77;;;4.68;;
8831;SDS011;4452;50.756;4.472;2023-06-19T01:38:28;5.15;;;4.20;;
8831;SDS011;4452;50.756;4.472;2023-06-19T01:40:55;6.53;;;3.70;;
8831;SDS011;4452;50.756;4.472;2023-06-19T01:43:23;5.43;;;3.80;;
8831;SDS011;4452;50.756;4.472;2023-06-19T01:45:49;8.48;;;4.57;;
8831;SDS011;4452;50.756;4.472;2023-06-19T01:48:15;8.18;;;4.05;;
8831;SDS011;4452;50.756;4.472;2023-06-19T01:50:45;6.15;;;4.50;;
8831;SDS011;4452;50.756;4.472;2023-06-19T01:53:12;4.93;;;4.40;;
8831;SDS011;4452;50.756;4.472;2023-06-19T01:55:38;3.95;;;3.53;;
8831;SDS011;4452;50.756;4.472;2023-06-19T01:58:04;7.97;;;4.07;;
8831;SDS011;4452;50.756;4.472;2023-06-19T02:00:30;6.32;;;4.13;;
8831;SDS011;4452;50.756;4.472;2023-06-19T02:03:00;5.55;;;4.50;;
8831;SDS011;4452;50.756;4.472;2023-06-19T02:05:26;6.63;;;4.85;;
8831;SDS011;4452;50.756;4.472;2023-06-19T02:07:52;9.05;;;4.78;;
8831;SDS011;4452;50.756;4.472;2023-06-19T02:10:18;6.10;;;4.85;;
8831;SDS011;4452;50.756;4.472;2023-06-19T02:12:44;9.05;;;5.20;;
8831;SDS011;4452;50.756;4.472;2023-06-19T02:15:09;5.80;;;4.25;;
8831;SDS011;4452;50.756;4.472;2023-06-19T02:17:35;6.20;;;4.50;;
8831;SDS011;4452;50.756;4.472;2023-06-19T02:20:01;5.07;;;4.55;;
8831;SDS011;4452;50.756;4.472;2023-06-19T02:22:27;9.18;;;5.35;;
8831;SDS011;4452;50.756;4.472;2023-06-19T02:24:53;8.77;;;5.20;;
8831;SDS011;4452;50.756;4.472;2023-06-19T02:27:18;9.77;;;5.10;;
8831;SDS011;4452;50.756;4.472;2023-06-19T02:29:44;9.63;;;5.70;;
8831;SDS011;4452;50.756;4.472;2023-06-19T02:32:10;10.88;;;5.50;;
8831;SDS011;4452;50.756;4.472;2023-06-19T02:34:36;8.63;;;6.20;;
8831;SDS011;4452;50.756;4.472;2023-06-19T02:37:01;12.07;;;6.07;;
8831;SDS011;4452;50.756;4.472;2023-06-19T02:39:27;12.13;;;6.15;;
8831;SDS011;4452;50.756;4.472;2023-06-19T02:41:54;13.35;;;7.43;;
8831;SDS011;4452;50.756;4.472;2023-06-19T02:44:20;13.40;;;7.75;;
8831;SDS011;4452;50.756;4.472;2023-06-19T02:46:45;12.82;;;8.43;;
8831;SDS011;4452;50.756;4.472;2023-06-19T02:49:11;13.38;;;8.68;;
8831;SDS011;4452;50.756;4.472;2023-06-19T02:51:36;17.05;;;8.60;;
8831;SDS011;4452;50.756;4.472;2023-06-19T02:54:02;14.18;;;9.07;;
8831;SDS011;4452;50.756;4.472;2023-06-19T02:56:28;18.10;;;8.43;;
8831;SDS011;4452;50.756;4.472;2023-06-19T02:58:54;16.67;;;9.57;;
8831;SDS011;4452;50.756;4.472;2023-06-19T03:01:19;14.23;;;9.45;;
8831;SDS011;4452;50.756;4.472;2023-06-19T03:03:45;20.23;;;9.70;;
8831;SDS011;4452;50.756;4.472;2023-06-19T03:06:11;17.17;;;9.63;;
8831;SDS011;4452;50.756;4.472;2023-06-19T03:08:38;14.40;;;9.98;;
8831;SDS011;4452;50.756;4.472;2023-06-19T03:11:04;21.13;;;10.50;;
8831;SDS011;4452;50.756;4.472;2023-06-19T03:14:12;16.23;;;11.02;;
8831;SDS011;4452;50.756;4.472;2023-06-19T03:16:20;24.42;;;11.55;;
8831;SDS011;4452;50.756;4.472;2023-06-19T03:18:46;18.63;;;10.93;;
8831;SDS011;4452;50.756;4.472;2023-06-19T03:21:13;19.17;;;11.05;;
8831;SDS011;4452;50.756;4.472;2023-06-19T03:23:39;17.17;;;11.30;;
8831;SDS011;4452;50.756;4.472;2023-06-19T03:26:11;16.50;;;11.13;;
8831;SDS011;4452;50.756;4.472;2023-06-19T03:28:37;14.90;;;9.88;;
8831;SDS011;4452;50.756;4.472;2023-06-19T03:31:03;13.93;;;9.57;;
8831;SDS011;4452;50.756;4.472;2023-06-19T03:33:28;20.33;;;11.95;;
8831;SDS011;4452;50.756;4.472;2023-06-19T03:35:54;16.55;;;9.30;;
8831;SDS011;4452;50.756;4.472;2023-06-19T03:38:20;13.90;;;9.18;;
8831;SDS011;4452;50.756;4.472;2023-06-19T03:40:46;13.63;;;9.43;;
8831;SDS011;4452;50.756;4.472;2023-06-19T03:43:12;15.43;;;9.65;;
8831;SDS011;4452;50.756;4.472;2023-06-19T03:45:38;12.85;;;9.30;;
8831;SDS011;4452;50.756;4.472;2023-06-19T03:48:03;15.80;;;9.90;;
8831;SDS011;4452;50.756;4.472;2023-06-19T03:50:29;13.77;;;8.73;;
8831;SDS011;4452;50.756;4.472;2023-06-19T03:52:55;15.82;;;9.95;;
8831;SDS011;4452;50.756;4.472;2023-06-19T03:55:20;19.83;;;10.35;;
8831;SDS011;4452;50.756;4.472;2023-06-19T03:57:46;13.93;;;10.00;;
8831;SDS011;4452;50.756;4.472;2023-06-19T04:00:13;22.85;;;11.18;;
8831;SDS011;4452;50.756;4.472;2023-06-19T04:02:43;18.17;;;11.25;;
8831;SDS011;4452;50.756;4.472;2023-06-19T04:05:14;12.23;;;9.45;;
8831;SDS011;4452;50.756;4.472;2023-06-19T04:07:43;23.27;;;9.98;;
8831;SDS011;4452;50.756;4.472;2023-06-19T04:10:11;20.88;;;11.32;;
8831;SDS011;4452;50.756;4.472;2023-06-19T04:12:39;14.50;;;9.68;;
8831;SDS011;4452;50.756;4.472;2023-06-19T04:15:08;15.05;;;9.77;;
8831;SDS011;4452;50.756;4.472;2023-06-19T04:17:36;17.65;;;11.50;;
8831;SDS011;4452;50.756;4.472;2023-06-19T04:20:02;18.80;;;12.18;;
8831;SDS011;4452;50.756;4.472;2023-06-19T04:22:36;17.02;;;12.18;;
8831;SDS011;4452;50.756;4.472;2023-06-19T04:25:03;17.17;;;11.68;;
8831;SDS011;4452;50.756;4.472;2023-06-19T04:27:30;21.23;;;12.40;;
8831;SDS011;4452;50.756;4.472;2023-06-19T04:29:56;18.15;;;11.55;;
8831;SDS011;4452;50.756;4.472;2023-06-19T04:32:22;18.60;;;11.88;;
8831;SDS011;4452;50.756;4.472;2023-06-19T04:34:47;17.67;;;12.57;;
8831;SDS011;4452;50.756;4.472;2023-06-19T04:37:13;19.58;;;12.95;;
8831;SDS011;4452;50.756;4.472;2023-06-19T04:39:44;21.95;;;13.10;;
8831;SDS011;4452;50.756;4.472;2023-06-19T04:42:10;21.40;;;13.20;;
8831;SDS011;4452;50.756;4.472;2023-06-19T04:44:48;26.83;;;13.57;;
8831;SDS011;4452;50.756;4.472;2023-06-19T04:47:16;19.15;;;12.60;;
8831;SDS011;4452;50.756;4.472;2023-06-19T04:49:45;18.67;;;12.93;;
8831;SDS011;4452;50.756;4.472;2023-06-19T04:52:11;23.23;;;12.23;;
8831;SDS011;4452;50.756;4.472;2023-06-19T04:54:37;19.40;;;11.18;;
8831;SDS011;4452;50.756;4.472;2023-06-19T04:57:03;15.00;;;10.25;;
8831;SDS011;4452;50.756;4.472;2023-06-19T04:59:29;18.42;;;11.57;;
8831;SDS011;4452;50.756;4.472;2023-06-19T05:01:55;20.17;;;11.75;;
8831;SDS011;4452;50.756;4.472;2023-06-19T05:04:21;20.58;;;12.18;;
8831;SDS011;4452;50.756;4.472;2023-06-19T05:06:48;19.77;;;12.52;;
8831;SDS011;4452;50.756;4.472;2023-06-19T05:09:14;15.95;;;10.85;;
8831;SDS011;4452;50.756;4.472;2023-06-19T05:11:39;17.73;;;11.52;;
8831;SDS011;4452;50.756;4.472;2023-06-19T05:14:05;17.63;;;11.45;;
8831;SDS011;4452;50.756;4.472;2023-06-19T05:16:31;15.50;;;11.05;;
8831;SDS011;4452;50.756;4.472;2023-06-19T05:18:57;19.90;;;11.15;;
8831;SDS011;4452;50.756;4.472;2023-06-19T05:21:22;19.63;;;11.73;;
8831;SDS011;4452;50.756;4.472;2023-06-19T05:23:48;19.25;;;12.30;;
8831;SDS011;4452;50.756;4.472;2023-06-19T05:26:19;21.52;;;12.18;;
8831;SDS011;4452;50.756;4.472;2023-06-19T05:28:45;14.18;;;8.80;;
8831;SDS011;4452;50.756;4.472;2023-06-19T05:31:11;18.83;;;11.80;;
8831;SDS011;4452;50.756;4.472;2023-06-19T05:33:37;17.52;;;11.35;;
8831;SDS011;4452;50.756;4.472;2023-06-19T05:36:02;18.88;;;11.63;;
8831;SDS011;4452;50.756;4.472;2023-06-19T05:38:28;19.73;;;11.50;;
8831;SDS011;4452;50.756;4.472;2023-06-19T05:40:56;16.70;;;11.70;;
8831;SDS011;4452;50.756;4.472;2023-06-19T05:43:22;13.90;;;9.80;;
8831;SDS011;4452;50.756;4.472;2023-06-19T05:45:49;23.17;;;10.82;;
8831;SDS011;4452;50.756;4.472;2023-06-19T05:48:15;14.98;;;9.73;;
8831;SDS011;4452;50.756;4.472;2023-06-19T05:50:41;14.63;;;9.55;;
8831;SDS011;4452;50.756;4.472;2023-06-19T05:53:06;14.50;;;9.43;;
8831;SDS011;4452;50.756;4.472;2023-06-19T05:55:32;15.07;;;10.90;;
8831;SDS011;4452;50.756;4.472;2023-06-19T05:57:58;15.75;;;10.50;;
8831;SDS011;4452;50.756;4.472;2023-06-19T06:00:23;15.43;;;11.07;;
8831;SDS011;4452;50.756;4.472;2023-06-19T06:02:49;18.65;;;11.15;;
8831;SDS011;4452;50.756;4.472;2023-06-19T06:05:17;19.90;;;11.18;;
8831;SDS011;4452;50.756;4.472;2023-06-19T06:07:46;17.77;;;11.60;;
8831;SDS011;4452;50.756;4.472;2023-06-19T06:10:15;15.27;;;11.20;;
8831;SDS011;4452;50.756;4.472;2023-06-19T06:12:43;17.35;;;13.35;;
8831;SDS011;4452;50.756;4.472;2023-06-19T06:15:10;24.02;;;13.13;;
8831;SDS011;4452;50.756;4.472;2023-06-19T06:17:36;17.55;;;11.40;;
8831;SDS011;4452;50.756;4.472;2023-06-19T06:20:02;17.75;;;12.68;;
8831;SDS011;4452;50.756;4.472;2023-06-19T06:22:34;23.15;;;11.95;;
8831;SDS011;4452;50.756;4.472;2023-06-19T06:25:00;21.20;;;12.65;;
8831;SDS011;4452;50.756;4.472;2023-06-19T06:27:25;19.30;;;12.73;;
8831;SDS011;4452;50.756;4.472;2023-06-19T06:29:51;22.83;;;11.57;;
8831;SDS011;4452;50.756;4.472;2023-06-19T06:32:17;16.23;;;12.75;;
8831;SDS011;4452;50.756;4.472;2023-06-19T06:34:43;15.98;;;12.40;;
8831;SDS011;4452;50.756;4.472;2023-06-19T06:37:09;18.98;;;12.18;;
8831;SDS011;4452;50.756;4.472;2023-06-19T06:39:34;19.08;;;12.38;;
8831;SDS011;4452;50.756;4.472;2023-06-19T06:42:00;20.88;;;12.63;;
8831;SDS011;4452;50.756;4.472;2023-06-19T06:44:26;20.38;;;12.77;;
8831;SDS011;4452;50.756;4.472;2023-06-19T06:46:52;16.98;;;11.75;;
8831;SDS011;4452;50.756;4.472;2023-06-19T06:49:17;17.42;;;11.20;;
8831;SDS011;4452;50.756;4.472;2023-06-19T06:51:43;16.77;;;11.73;;
8831;SDS011;4452;50.756;4.472;2023-06-19T06:54:09;12.52;;;10.07;;
8831;SDS011;4452;50.756;4.472;2023-06-19T06:56:35;15.32;;;11.50;;
8831;SDS011;4452;50.756;4.472;2023-06-19T06:59:01;15.38;;;11.90;;
8831;SDS011;4452;50.756;4.472;2023-06-19T07:01:26;18.23;;;12.25;;
8831;SDS011;4452;50.756;4.472;2023-06-19T07:03:52;16.70;;;11.00;;
8831;SDS011;4452;50.756;4.472;2023-06-19T07:06:19;16.83;;;12.65;;
8831;SDS011;4452;50.756;4.472;2023-06-19T07:08:48;20.42;;;12.13;;
8831;SDS011;4452;50.756;4.472;2023-06-19T07:11:16;17.13;;;11.35;;
8831;SDS011;4452;50.756;4.472;2023-06-19T07:13:43;18.17;;;11.20;;
8831;SDS011;4452;50.756;4.472;2023-06-19T07:16:09;16.83;;;10.35;;
8831;SDS011;4452;50.756;4.472;2023-06-19T07:18:35;17.38;;;12.50;;
8831;SDS011;4452;50.756;4.472;2023-06-19T07:21:03;16.27;;;11.55;;
8831;SDS011;4452;50.756;4.472;2023-06-19T07:23:36;15.40;;;10.90;;
8831;SDS011;4452;50.756;4.472;2023-06-19T07:26:02;16.40;;;11.07;;
8831;SDS011;4452;50.756;4.472;2023-06-19T07:28:28;15.05;;;10.25;;
8831;SDS011;4452;50.756;4.472;2023-06-19T07:30:55;14.63;;;10.75;;
8831;SDS011;4452;50.756;4.472;2023-06-19T07:33:20;13.18;;;10.23;;
8831;SDS011;4452;50.756;4.472;2023-06-19T07:35:46;16.42;;;11.00;;
8831;SDS011;4452;50.756;4.472;2023-06-19T07:38:12;18.42;;;12.68;;
8831;SDS011;4452;50.756;4.472;2023-06-19T07:40:38;16.80;;;10.73;;
8831;SDS011;4452;50.756;4.472;2023-06-19T07:43:04;15.38;;;11.50;;
8831;SDS011;4452;50.756;4.472;2023-06-19T07:45:29;17.30;;;12.15;;
8831;SDS011;4452;50.756;4.472;2023-06-19T07:47:55;15.40;;;11.52;;
8831;SDS011;4452;50.756;4.472;2023-06-19T07:50:22;16.58;;;10.90;;
8831;SDS011;4452;50.756;4.472;2023-06-19T07:52:47;15.90;;;10.02;;
8831;SDS011;4452;50.756;4.472;2023-06-19T07:55:13;16.35;;;9.77;;
8831;SDS011;4452;50.756;4.472;2023-06-19T07:57:39;10.52;;;8.05;;
8831;SDS011;4452;50.756;4.472;2023-06-19T08:00:06;14.38;;;9.07;;
8831;SDS011;4452;50.756;4.472;2023-06-19T08:02:41;10.68;;;8.38;;
8831;SDS011;4452;50.756;4.472;2023-06-19T08:05:07;10.55;;;9.18;;
8831;SDS011;4452;50.756;4.472;2023-06-19T08:07:34;15.38;;;10.30;;
8831;SDS011;4452;50.756;4.472;2023-06-19T08:10:00;12.18;;;8.30;;
8831;SDS011;4452;50.756;4.472;2023-06-19T08:12:28;13.90;;;10.00;;
8831;SDS011;4452;50.756;4.472;2023-06-19T08:14:54;12.95;;;9.60;;
8831;SDS011;4452;50.756;4.472;2023-06-19T08:17:20;11.98;;;10.07;;
8831;SDS011;4452;50.756;4.472;2023-06-19T08:19:46;14.80;;;10.15;;
8831;SDS011;4452;50.756;4.472;2023-06-19T08:22:12;12.57;;;9.77;;
8831;SDS011;4452;50.756;4.472;2023-06-19T08:24:38;13.18;;;10.90;;
8831;SDS011;4452;50.756;4.472;2023-06-19T08:27:07;16.33;;;11.27;;
8831;SDS011;4452;50.756;4.472;2023-06-19T08:29:32;18.23;;;10.85;;
8831;SDS011;4452;50.756;4.472;2023-06-19T08:31:58;15.32;;;11.57;;
8831;SDS011;4452;50.756;4.472;2023-06-19T08:34:24;15.07;;;11.25;;
8831;SDS011;4452;50.756;4.472;2023-06-19T08:36:50;13.68;;;10.32;;
8831;SDS011;4452;50.756;4.472;2023-06-19T08:39:16;14.77;;;10.85;;
8831;SDS011;4452;50.756;4.472;2023-06-19T08:41:42;11.63;;;9.43;;
8831;SDS011;4452;50.756;4.472;2023-06-19T08:44:08;13.98;;;10.02;;
8831;SDS011;4452;50.756;4.472;2023-06-19T08:46:34;12.90;;;9.82;;
8831;SDS011;4452;50.756;4.472;2023-06-19T08:49:02;14.88;;;10.32;;
8831;SDS011;4452;50.756;4.472;2023-06-19T08:51:28;17.02;;;10.15;;
8831;SDS011;4452;50.756;4.472;2023-06-19T08:54:01;13.70;;;10.15;;
8831;SDS011;4452;50.756;4.472;2023-06-19T08:56:29;15.32;;;10.10;;
8831;SDS011;4452;50.756;4.472;2023-06-19T08:59:12;11.73;;;8.70;;
8831;SDS011;4452;50.756;4.472;2023-06-19T09:01:39;12.95;;;9.15;;
8831;SDS011;4452;50.756;4.472;2023-06-19T09:04:09;15.43;;;10.63;;
8831;SDS011;4452;50.756;4.472;2023-06-19T09:06:36;15.80;;;10.13;;
8831;SDS011;4452;50.756;4.472;2023-06-19T09:09:13;13.65;;;10.80;;
8831;SDS011;4452;50.756;4.472;2023-06-19T09:11:40;14.65;;;9.70;;
8831;SDS011;4452;50.756;4.472;2023-06-19T09:14:08;14.43;;;9.07;;
8831;SDS011;4452;50.756;4.472;2023-06-19T09:16:36;21.02;;;9.20;;
8831;SDS011;4452;50.756;4.472;2023-06-19T09:19:03;12.20;;;10.48;;
8831;SDS011;4452;50.756;4.472;2023-06-19T09:21:29;17.52;;;11.40;;
8831;SDS011;4452;50.756;4.472;2023-06-19T09:23:55;12.07;;;8.65;;
8831;SDS011;4452;50.756;4.472;2023-06-19T09:26:28;18.60;;;10.50;;
8831;SDS011;4452;50.756;4.472;2023-06-19T09:28:53;17.35;;;11.90;;
8831;SDS011;4452;50.756;4.472;2023-06-19T09:31:19;12.60;;;11.02;;
8831;SDS011;4452;50.756;4.472;2023-06-19T09:33:45;17.45;;;12.05;;
8831;SDS011;4452;50.756;4.472;2023-06-19T09:36:11;16.77;;;13.18;;
8831;SDS011;4452;50.756;4.472;2023-06-19T09:38:39;17.15;;;12.15;;
8831;SDS011;4452;50.756;4.472;2023-06-19T09:41:05;24.95;;;14.05;;
8831;SDS011;4452;50.756;4.472;2023-06-19T09:43:39;20.45;;;14.82;;
8831;SDS011;4452;50.756;4.472;2023-06-19T09:46:07;21.90;;;15.65;;
8831;SDS011;4452;50.756;4.472;2023-06-19T09:48:34;22.60;;;14.52;;
8831;SDS011;4452;50.756;4.472;2023-06-19T09:51:41;16.50;;;12.93;;
8831;SDS011;4452;50.756;4.472;2023-06-19T09:54:02;16.88;;;13.57;;
8831;SDS011;4452;50.756;4.472;2023-06-19T09:56:31;24.15;;;12.30;;
8831;SDS011;4452;50.756;4.472;2023-06-19T09:58:59;16.67;;;11.68;;
8831;SDS011;4452;50.756;4.472;2023-06-19T10:01:26;22.67;;;12.20;;
8831;SDS011;4452;50.756;4.472;2023-06-19T10:04:03;16.83;;;11.60;;
8831;SDS011;4452;50.756;4.472;2023-06-19T10:06:31;20.15;;;11.88;;
8831;SDS011;4452;50.756;4.472;2023-06-19T10:09:05;16.42;;;11.50;;
8831;SDS011;4452;50.756;4.472;2023-06-19T10:14:44;18.50;;;11.38;;
8831;SDS011;4452;50.756;4.472;2023-06-19T10:17:12;16.73;;;11.30;;
8831;SDS011;4452;50.756;4.472;2023-06-19T10:19:49;15.02;;;11.55;;
8831;SDS011;4452;50.756;4.472;2023-06-19T10:22:19;15.70;;;10.88;;
8831;SDS011;4452;50.756;4.472;2023-06-19T10:24:51;13.77;;;9.60;;
8831;SDS011;4452;50.756;4.472;2023-06-19T10:27:20;12.57;;;9.55;;
8831;SDS011;4452;50.756;4.472;2023-06-19T10:29:56;17.55;;;8.50;;
8831;SDS011;4452;50.756;4.472;2023-06-19T10:32:22;12.48;;;7.50;;
8831;SDS011;4452;50.756;4.472;2023-06-19T10:34:48;14.45;;;8.35;;
8831;SDS011;4452;50.756;4.472;2023-06-19T10:37:14;13.68;;;8.63;;
8831;SDS011;4452;50.756;4.472;2023-06-19T10:39:40;12.23;;;8.35;;
8831;SDS011;4452;50.756;4.472;2023-06-19T10:42:07;10.43;;;7.93;;
8831;SDS011;4452;50.756;4.472;2023-06-19T10:44:33;13.95;;;8.45;;
8831;SDS011;4452;50.756;4.472;2023-06-19T10:47:00;13.52;;;7.63;;
8831;SDS011;4452;50.756;4.472;2023-06-19T10:49:26;11.52;;;7.90;;
8831;SDS011;4452;50.756;4.472;2023-06-19T10:51:52;13.10;;;8.15;;
8831;SDS011;4452;50.756;4.472;2023-06-19T10:54:24;12.38;;;7.80;;
8831;SDS011;4452;50.756;4.472;2023-06-19T10:56:50;13.55;;;8.13;;
8831;SDS011;4452;50.756;4.472;2023-06-19T10:59:16;11.23;;;8.00;;
8831;SDS011;4452;50.756;4.472;2023-06-19T11:01:45;11.38;;;9.35;;
8831;SDS011;4452;50.756;4.472;2023-06-19T11:04:11;11.55;;;8.25;;
8831;SDS011;4452;50.756;4.472;2023-06-19T11:06:40;10.75;;;7.95;;
8831;SDS011;4452;50.756;4.472;2023-06-19T11:09:08;10.75;;;8.45;;
8831;SDS011;4452;50.756;4.472;2023-06-19T11:11:42;8.23;;;6.30;;
8831;SDS011;4452;50.756;4.472;2023-06-19T11:14:12;8.75;;;6.30;;
8831;SDS011;4452;50.756;4.472;2023-06-19T11:16:44;14.60;;;6.90;;
8831;SDS011;4452;50.756;4.472;2023-06-19T11:19:16;8.80;;;7.00;;
8831;SDS011;4452;50.756;4.472;2023-06-19T11:21:45;11.90;;;7.68;;
8831;SDS011;4452;50.756;4.472;2023-06-19T11:24:12;9.05;;;6.65;;
8831;SDS011;4452;50.756;4.472;2023-06-19T11:26:49;13.88;;;7.60;;
8831;SDS011;4452;50.756;4.472;2023-06-19T11:29:19;13.73;;;7.78;;
8831;SDS011;4452;50.756;4.472;2023-06-19T11:31:46;9.82;;;7.80;;
8831;SDS011;4452;50.756;4.472;2023-06-19T11:34:13;11.85;;;7.80;;
8831;SDS011;4452;50.756;4.472;2023-06-19T11:36:40;11.02;;;7.50;;
8831;SDS011;4452;50.756;4.472;2023-06-19T11:39:13;11.63;;;7.45;;
8831;SDS011;4452;50.756;4.472;2023-06-19T11:41:40;8.65;;;6.97;;
8831;SDS011;4452;50.756;4.472;2023-06-19T11:44:08;14.70;;;7.30;;
8831;SDS011;4452;50.756;4.472;2023-06-19T11:46:35;8.75;;;7.13;;
8831;SDS011;4452;50.756;4.472;2023-06-19T11:49:07;10.18;;;7.35;;
8831;SDS011;4452;50.756;4.472;2023-06-19T11:51:33;9.95;;;7.10;;
8831;SDS011;4452;50.756;4.472;2023-06-19T11:53:58;7.15;;;6.35;;
8831;SDS011;4452;50.756;4.472;2023-06-19T11:56:24;9.25;;;6.43;;
8831;SDS011;4452;50.756;4.472;2023-06-19T11:58:50;8.75;;;6.82;;
8831;SDS011;4452;50.756;4.472;2023-06-19T12:01:15;10.00;;;6.78;;
8831;SDS011;4452;50.756;4.472;2023-06-19T12:03:41;8.68;;;6.28;;
8831;SDS011;4452;50.756;4.472;2023-06-19T12:06:06;11.13;;;6.47;;
8831;SDS011;4452;50.756;4.472;2023-06-19T12:08:32;7.13;;;5.55;;
8831;SDS011;4452;50.756;4.472;2023-06-19T12:10:58;10.70;;;7.07;;
8831;SDS011;4452;50.756;4.472;2023-06-19T12:13:24;8.82;;;6.65;;
8831;SDS011;4452;50.756;4.472;2023-06-19T12:15:50;9.27;;;6.63;;
8831;SDS011;4452;50.756;4.472;2023-06-19T12:18:15;9.23;;;6.25;;
8831;SDS011;4452;50.756;4.472;2023-06-19T12:20:41;7.70;;;6.60;;
8831;SDS011;4452;50.756;4.472;2023-06-19T12:23:06;7.75;;;6.53;;
8831;SDS011;4452;50.756;4.472;2023-06-19T12:25:32;9.02;;;6.90;;
8831;SDS011;4452;50.756;4.472;2023-06-19T12:27:58;8.30;;;6.63;;
8831;SDS011;4452;50.756;4.472;2023-06-19T12:30:23;13.98;;;6.05;;
8831;SDS011;4452;50.756;4.472;2023-06-19T12:32:50;8.90;;;5.95;;
8831;SDS011;4452;50.756;4.472;2023-06-19T12:35:15;7.82;;;5.57;;
8831;SDS011;4452;50.756;4.472;2023-06-19T12:37:41;6.95;;;6.10;;
8831;SDS011;4452;50.756;4.472;2023-06-19T12:40:07;6.30;;;5.70;;
8831;SDS011;4452;50.756;4.472;2023-06-19T12:42:35;8.60;;;6.63;;
8831;SDS011;4452;50.756;4.472;2023-06-19T12:45:02;9.98;;;6.45;;
8831;SDS011;4452;50.756;4.472;2023-06-19T12:47:28;7.80;;;6.30;;
8831;SDS011;4452;50.756;4.472;2023-06-19T12:49:54;9.27;;;5.85;;
8831;SDS011;4452;50.756;4.472;2023-06-19T12:52:20;5.82;;;5.32;;
8831;SDS011;4452;50.756;4.472;2023-06-19T12:54:45;8.82;;;5.97;;
8831;SDS011;4452;50.756;4.472;2023-06-19T12:57:11;8.48;;;5.00;;
8831;SDS011;4452;50.756;4.472;2023-06-19T12:59:37;8.52;;;5.82;;
8831;SDS011;4452;50.756;4.472;2023-06-19T13:02:02;7.63;;;6.07;;
8831;SDS011;4452;50.756;4.472;2023-06-19T13:04:28;7.53;;;6.28;;
8831;SDS011;4452;50.756;4.472;2023-06-19T13:06:54;7.22;;;5.85;;
8831;SDS011;4452;50.756;4.472;2023-06-19T13:09:19;10.80;;;6.28;;
8831;SDS011;4452;50.756;4.472;2023-06-19T13:11:45;11.45;;;6.20;;
8831;SDS011;4452;50.756;4.472;2023-06-19T13:14:11;8.15;;;6.00;;
8831;SDS011;4452;50.756;4.472;2023-06-19T13:16:36;11.55;;;6.80;;
8831;SDS011;4452;50.756;4.472;2023-06-19T13:19:02;9.15;;;5.95;;
8831;SDS011;4452;50.756;4.472;2023-06-19T13:21:28;7.15;;;5.25;;
8831;SDS011;4452;50.756;4.472;2023-06-19T13:23:53;6.00;;;5.40;;
8831;SDS011;4452;50.756;4.472;2023-06-19T13:26:19;10.48;;;5.80;;
8831;SDS011;4452;50.756;4.472;2023-06-19T13:28:45;6.40;;;5.80;;
8831;SDS011;4452;50.756;4.472;2023-06-19T13:31:10;8.88;;;6.20;;
8831;SDS011;4452;50.756;4.472;2023-06-19T13:33:36;7.03;;;5.60;;
8831;SDS011;4452;50.756;4.472;2023-06-19T13:36:01;6.30;;;5.75;;
8831;SDS011;4452;50.756;4.472;2023-06-19T13:38:27;12.30;;;5.97;;
8831;SDS011;4452;50.756;4.472;2023-06-19T13:40:53;8.00;;;5.85;;
8831;SDS011;4452;50.756;4.472;2023-06-19T13:43:18;8.10;;;5.68;;
8831;SDS011;4452;50.756;4.472;2023-06-19T13:45:45;6.88;;;5.93;;
8831;SDS011;4452;50.756;4.472;2023-06-19T13:48:10;8.57;;;6.00;;
8831;SDS011;4452;50.756;4.472;2023-06-19T13:50:36;6.18;;;5.45;;
8831;SDS011;4452;50.756;4.472;2023-06-19T13:53:01;6.45;;;5.32;;
8831;SDS011;4452;50.756;4.472;2023-06-19T13:55:27;5.78;;;5.28;;
8831;SDS011;4452;50.756;4.472;2023-06-19T13:57:53;6.30;;;5.30;;
8831;SDS011;4452;50.756;4.472;2023-06-19T14:00:19;5.57;;;5.07;;
8831;SDS011;4452;50.756;4.472;2023-06-19T14:02:45;6.00;;;5.50;;
8831;SDS011;4452;50.756;4.472;2023-06-19T14:05:11;7.75;;;5.53;;
8831;SDS011;4452;50.756;4.472;2023-06-19T14:07:40;7.93;;;5.93;;
8831;SDS011;4452;50.756;4.472;2023-06-19T14:10:06;10.23;;;5.75;;
8831;SDS011;4452;50.756;4.472;2023-06-19T14:12:32;6.88;;;5.80;;
8831;SDS011;4452;50.756;4.472;2023-06-19T14:14:58;6.22;;;5.63;;
8831;SDS011;4452;50.756;4.472;2023-06-19T14:17:24;6.28;;;5.68;;
8831;SDS011;4452;50.756;4.472;2023-06-19T14:19:49;7.10;;;5.47;;
8831;SDS011;4452;50.756;4.472;2023-06-19T14:22:18;8.98;;;5.30;;
8831;SDS011;4452;50.756;4.472;2023-06-19T14:24:44;9.50;;;5.18;;
8831;SDS011;4452;50.756;4.472;2023-06-19T14:27:10;8.40;;;5.35;;
8831;SDS011;4452;50.756;4.472;2023-06-19T14:29:35;6.95;;;5.20;;
8831;SDS011;4452;50.756;4.472;2023-06-19T14:32:01;7.40;;;5.32;;
8831;SDS011;4452;50.756;4.472;2023-06-19T14:34:27;5.55;;;4.88;;
8831;SDS011;4452;50.756;4.472;2023-06-19T14:36:53;7.75;;;5.13;;
8831;SDS011;4452;50.756;4.472;2023-06-19T14:39:19;10.02;;;5.30;;
8831;SDS011;4452;50.756;4.472;2023-06-19T14:41:45;6.30;;;5.47;;
8831;SDS011;4452;50.756;4.472;2023-06-19T14:44:10;10.75;;;5.13;;
8831;SDS011;4452;50.756;4.472;2023-06-19T14:46:36;10.07;;;5.93;;
8831;SDS011;4452;50.756;4.472;2023-06-19T14:49:09;6.32;;;5.60;;
8831;SDS011;4452;50.756;4.472;2023-06-19T14:51:38;8.05;;;5.38;;
8831;SDS011;4452;50.756;4.472;2023-06-19T14:54:04;7.43;;;5.28;;
8831;SDS011;4452;50.756;4.472;2023-06-19T14:56:29;6.00;;;5.40;;
8831;SDS011;4452;50.756;4.472;2023-06-19T14:58:55;6.10;;;5.60;;
8831;SDS011;4452;50.756;4.472;2023-06-19T15:01:21;7.10;;;5.20;;
8831;SDS011;4452;50.756;4.472;2023-06-19T15:03:46;8.00;;;5.18;;
8831;SDS011;4452;50.756;4.472;2023-06-19T15:06:12;6.78;;;4.95;;
8831;SDS011;4452;50.756;4.472;2023-06-19T15:08:38;5.80;;;5.03;;